createdAt,value
2022-08-17T00:03:20.332Z,33.47
2022-08-17T00:08:32.780Z,31.40
2022-08-17T00:13:38.825Z,33.70
2022-08-17T00:19:01.382Z,34.20
2022-08-17T00:24:09.381Z,33.22
2022-08-17T00:29:17.865Z,30.83
2022-08-17T00:34:25.452Z,34.30
2022-08-17T00:39:34.673Z,33.55
2022-08-17T00:44:38.428Z,32.55
2022-08-17T00:49:43.816Z,31.80
2022-08-17T00:54:52.876Z,31.92
2022-08-17T01:00:03.248Z,35.03
2022-08-17T01:05:13.549Z,32.28
2022-08-17T01:10:59.497Z,25.80
2022-08-17T01:15:54.109Z,25.40
2022-08-17T01:21:03.146Z,23.85
2022-08-17T01:26:10.156Z,27.60
2022-08-17T01:31:14.287Z,26.83
2022-08-17T01:36:21.082Z,30.42
2022-08-17T01:41:26.275Z,29.65
2022-08-17T01:46:33.426Z,31.65
2022-08-17T01:51:38.760Z,30.58
2022-08-17T01:56:47.778Z,32.35
2022-08-17T02:01:52.892Z,29.05
2022-08-17T02:06:56.691Z,31.25
2022-08-17T02:12:37.322Z,31.00
2022-08-17T02:22:33.447Z,29.42
2022-08-17T02:27:39.837Z,31.87
2022-08-17T02:32:43.571Z,32.30
2022-08-17T02:37:48.947Z,32.83
2022-08-17T02:43:02.515Z,30.90
2022-08-17T02:48:06.902Z,30.20
2022-08-17T02:53:10.643Z,28.67
2022-08-17T02:58:17.529Z,28.83
2022-08-17T03:03:41.177Z,29.98
2022-08-17T03:08:44.886Z,31.65
2022-08-17T03:13:50.008Z,32.88
2022-08-17T03:18:55.159Z,29.27
2022-08-17T03:23:58.877Z,33.72
2022-08-17T03:29:04.220Z,32.20
2022-08-17T03:34:07.972Z,30.92
2022-08-17T03:39:11.763Z,28.98
2022-08-17T03:44:17.503Z,25.95
2022-08-17T03:49:38.387Z,27.83
2022-08-17T03:55:00.727Z,28.87
2022-08-17T04:00:08.564Z,26.80
2022-08-17T04:05:16.025Z,30.02
2022-08-17T04:10:21.831Z,27.98
2022-08-17T04:15:30.938Z,28.58
2022-08-17T04:20:36.269Z,26.67
2022-08-17T04:25:43.899Z,25.40
2022-08-17T04:30:49.425Z,28.67
2022-08-17T04:35:56.520Z,23.90
2022-08-17T04:41:19.108Z,25.85
2022-08-17T04:46:26.523Z,28.15
2022-08-17T04:51:32.698Z,30.90
2022-08-17T04:56:37.302Z,30.45
2022-08-17T05:01:45.453Z,30.95
2022-08-17T05:11:55.295Z,29.10
2022-08-17T05:17:01.443Z,32.58
2022-08-17T05:22:06.168Z,28.95
2022-08-17T05:27:09.838Z,31.08
2022-08-17T05:37:43.288Z,27.25
2022-08-17T05:42:47.074Z,29.60
2022-08-17T05:47:52.391Z,26.65
2022-08-17T05:53:04.455Z,25.85
2022-08-17T05:58:21.245Z,25.92
2022-08-17T06:03:40.121Z,25.48
2022-08-17T06:08:51.513Z,25.35
2022-08-17T06:14:11.078Z,25.40
2022-08-17T06:19:19.877Z,26.23
2022-08-17T06:24:34.207Z,25.08
2022-08-17T06:29:45.097Z,22.85
2022-08-17T06:34:50.364Z,23.33
2022-08-17T06:39:59.909Z,22.02
2022-08-17T06:45:08.497Z,20.88
2022-08-17T06:50:20.459Z,19.25
2022-08-17T06:55:33.187Z,21.45
2022-08-17T07:00:43.491Z,19.50
2022-08-17T07:05:53.065Z,19.55
2022-08-17T07:11:03.306Z,18.10
2022-08-17T07:16:25.840Z,16.80
2022-08-17T07:21:44.940Z,15.82
2022-08-17T07:26:49.612Z,15.85
2022-08-17T07:31:56.211Z,14.87
2022-08-17T07:37:05.418Z,14.87
2022-08-17T07:47:35.576Z,13.75
2022-08-17T07:52:50.751Z,13.73
2022-08-17T07:57:57.388Z,13.25
2022-08-17T08:03:12.302Z,11.50
2022-08-17T08:08:29.552Z,12.05
2022-08-17T08:13:33.617Z,10.40
2022-08-17T08:18:55.606Z,10.77
2022-08-17T08:24:16.079Z,10.18
2022-08-17T08:29:29.301Z,9.77
2022-08-17T08:34:58.894Z,9.10
2022-08-17T08:40:21.536Z,8.63
2022-08-17T08:45:31.885Z,8.25
2022-08-17T08:50:46.607Z,11.00
2022-08-17T08:55:56.405Z,8.90
2022-08-17T09:01:02.689Z,8.35
2022-08-17T09:06:33.600Z,9.75
2022-08-17T09:12:02.759Z,8.63
2022-08-17T09:17:13.803Z,8.65
2022-08-17T09:22:31.341Z,9.90
2022-08-17T09:27:47.556Z,8.30
2022-08-17T09:32:55.577Z,9.77
2022-08-17T09:43:17.976Z,10.60
2022-08-17T09:48:27.559Z,8.98
2022-08-17T09:53:32.214Z,10.32
2022-08-17T09:58:51.299Z,11.23
2022-08-17T10:04:11.377Z,11.70
2022-08-17T10:09:23.102Z,11.18
2022-08-17T10:14:37.653Z,12.13
2022-08-17T10:19:54.971Z,13.98
2022-08-17T10:25:22.261Z,16.37
2022-08-17T10:30:33.845Z,16.87
2022-08-17T10:35:48.721Z,17.92
2022-08-17T10:40:58.410Z,20.05
2022-08-17T10:46:30.394Z,20.12
2022-08-17T10:51:38.871Z,19.35
2022-08-17T10:56:52.276Z,22.50
2022-08-17T11:02:12.248Z,22.87
2022-08-17T11:07:27.924Z,24.27
2022-08-17T11:12:39.312Z,21.52
2022-08-17T11:18:14.170Z,20.80
2022-08-17T11:23:33.598Z,22.05
2022-08-17T11:28:48.772Z,21.77
2022-08-17T11:34:02.285Z,21.70
2022-08-17T11:39:18.572Z,22.92
2022-08-17T11:44:37.779Z,22.98
2022-08-17T11:50:19.029Z,23.02
2022-08-17T11:56:00.021Z,22.83
2022-08-17T12:01:06.019Z,21.10
2022-08-17T12:06:22.022Z,20.73
2022-08-17T12:11:58.683Z,21.23
2022-08-17T12:17:04.046Z,21.30
2022-08-17T12:22:18.868Z,21.80
2022-08-17T12:27:47.673Z,23.02
2022-08-17T12:32:51.278Z,21.60
2022-08-17T12:37:58.201Z,20.77
2022-08-17T12:43:05.347Z,19.25
2022-08-17T12:48:12.398Z,20.95
2022-08-17T12:53:22.530Z,21.30
2022-08-17T12:58:33.706Z,20.15
2022-08-17T13:03:41.697Z,20.10
2022-08-17T13:08:49.023Z,20.20
2022-08-17T13:13:56.015Z,21.27
2022-08-17T13:19:08.700Z,21.62
2022-08-17T13:24:20.463Z,21.87
2022-08-17T13:29:27.461Z,20.35
2022-08-17T13:35:11.832Z,20.75
2022-08-17T13:40:31.269Z,21.62
2022-08-17T13:45:38.885Z,20.65
2022-08-17T13:55:52.717Z,20.45
2022-08-17T14:00:56.915Z,20.52
2022-08-17T14:06:00.711Z,18.98
2022-08-17T14:11:05.894Z,17.73
2022-08-17T14:16:09.685Z,17.05
2022-08-17T14:21:14.096Z,18.70
2022-08-17T14:26:19.283Z,19.37
2022-08-17T14:31:23.121Z,19.00
2022-08-17T14:36:27.119Z,18.55
2022-08-17T14:41:32.487Z,21.10
2022-08-17T14:46:36.935Z,20.62
2022-08-17T14:51:43.815Z,19.10
2022-08-17T14:56:49.643Z,21.58
2022-08-17T15:02:04.817Z,23.00
2022-08-17T15:07:09.001Z,23.45
2022-08-17T15:12:18.988Z,22.75
2022-08-17T15:17:23.334Z,23.87
2022-08-17T15:22:28.085Z,22.73
2022-08-17T15:27:34.744Z,26.30
2022-08-17T15:32:40.596Z,22.92
2022-08-17T15:37:45.087Z,21.62
2022-08-17T15:42:51.086Z,24.30
2022-08-17T15:47:55.253Z,22.10
2022-08-17T15:53:00.541Z,22.70
2022-08-17T15:58:06.373Z,25.02
2022-08-17T16:03:45.925Z,23.73
2022-08-17T16:08:34.279Z,24.85
2022-08-17T16:13:40.663Z,24.70
2022-08-17T16:18:44.837Z,27.83
2022-08-17T16:23:49.584Z,27.23
2022-08-17T16:28:54.804Z,24.48
2022-08-17T16:34:15.848Z,26.87
2022-08-17T16:39:22.214Z,22.58
2022-08-17T16:44:28.992Z,25.60
2022-08-17T16:49:37.164Z,24.87
2022-08-17T16:54:46.683Z,23.60
2022-08-17T16:59:53.112Z,27.42
2022-08-17T17:05:03.877Z,26.48
2022-08-17T17:10:11.342Z,27.23
2022-08-17T17:15:21.987Z,27.77
2022-08-17T17:20:35.429Z,28.23
2022-08-17T17:25:48.840Z,26.27
2022-08-17T17:31:02.319Z,28.27
2022-08-17T17:36:09.780Z,26.02
2022-08-17T17:41:26.514Z,28.57
2022-08-17T17:46:37.819Z,28.60
2022-08-17T17:52:05.915Z,28.90
2022-08-17T17:57:22.359Z,28.73
2022-08-17T18:02:52.572Z,28.98
2022-08-17T18:08:11.091Z,30.98
2022-08-17T18:13:26.704Z,31.30
2022-08-17T18:18:44.609Z,27.25
2022-08-17T18:23:52.947Z,29.17
2022-08-17T18:28:56.918Z,29.42
2022-08-17T18:34:43.772Z,25.73
2022-08-17T18:39:46.418Z,28.35
2022-08-17T18:44:54.760Z,29.50
2022-08-17T18:50:24.233Z,29.05
2022-08-17T18:55:30.265Z,28.40
2022-08-17T19:00:38.335Z,32.88
2022-08-17T19:05:43.918Z,31.92
2022-08-17T19:10:51.405Z,31.98
2022-08-17T19:16:12.181Z,31.80
2022-08-17T19:21:22.578Z,33.35
2022-08-17T19:26:53.883Z,37.83
2022-08-17T19:31:55.193Z,35.97
2022-08-17T19:37:03.516Z,40.40
2022-08-17T19:42:17.276Z,37.45
2022-08-17T19:47:53.352Z,36.78
2022-08-17T19:53:00.291Z,36.95
2022-08-17T19:58:12.148Z,38.42
2022-08-17T20:03:26.680Z,36.70
2022-08-17T20:08:35.588Z,39.85
2022-08-17T20:13:43.977Z,44.25
2022-08-17T20:18:56.339Z,47.75
2022-08-17T20:24:06.434Z,43.92
2022-08-17T20:29:37.686Z,46.08
2022-08-17T20:34:48.314Z,42.97
2022-08-17T20:40:21.227Z,44.20
2022-08-17T20:45:49.453Z,36.10
2022-08-17T20:50:58.949Z,35.35
2022-08-17T20:56:03.029Z,37.00
2022-08-17T21:01:20.126Z,33.95
2022-08-17T21:06:26.269Z,33.67
2022-08-17T21:12:04.527Z,39.50
2022-08-17T21:17:38.379Z,50.50
2022-08-17T21:22:56.475Z,51.15
2022-08-17T21:28:15.679Z,54.30
2022-08-17T21:33:27.935Z,54.70
2022-08-17T21:38:37.248Z,53.20
2022-08-17T21:43:48.951Z,47.08
2022-08-17T21:48:59.219Z,51.75
2022-08-17T21:54:14.256Z,57.20
2022-08-17T21:59:27.254Z,53.17
2022-08-17T22:04:34.220Z,57.05
2022-08-17T22:09:44.838Z,49.88
2022-08-17T22:15:00.436Z,51.95
2022-08-17T22:20:14.254Z,43.90
2022-08-17T22:25:22.308Z,44.45
2022-08-17T22:30:33.495Z,39.47
2022-08-17T22:35:42.712Z,38.05
2022-08-17T22:40:49.738Z,36.28
2022-08-17T22:46:00.352Z,34.85
2022-08-17T22:51:12.890Z,35.03
2022-08-17T22:56:37.080Z,30.27
2022-08-17T23:01:41.876Z,28.70
2022-08-17T23:06:51.469Z,28.27
2022-08-17T23:11:58.753Z,26.98
2022-08-17T23:17:02.623Z,27.80
2022-08-17T23:22:09.888Z,24.95
2022-08-17T23:27:13.999Z,24.35
2022-08-17T23:32:19.572Z,24.08
2022-08-17T23:37:27.069Z,22.50
2022-08-17T23:42:30.863Z,23.90
2022-08-17T23:47:35.544Z,21.30
2022-08-17T23:52:41.391Z,22.25
2022-08-17T23:57:46.653Z,22.10
